sensor_id;sensor_type;location;lat;lon;timestamp;temperature;humidity
70244;DHT22;57634;51.136;17.024;2023-06-14T00:00:19;12.90;66.80
70244;DHT22;57634;51.136;17.024;2023-06-14T00:03:52;12.90;66.80
70244;DHT22;57634;51.136;17.024;2023-06-14T00:06:53;13.00;66.90
70244;DHT22;57634;51.136;17.024;2023-06-14T00:09:57;13.00;66.90
70244;DHT22;57634;51.136;17.024;2023-06-14T00:12:59;13.00;67.10
70244;DHT22;57634;51.136;17.024;2023-06-14T00:16:01;12.90;67.30
70244;DHT22;57634;51.136;17.024;2023-06-14T00:19:04;12.90;67.40
70244;DHT22;57634;51.136;17.024;2023-06-14T00:22:05;12.90;67.40
70244;DHT22;57634;51.136;17.024;2023-06-14T00:25:07;12.90;67.50
70244;DHT22;57634;51.136;17.024;2023-06-14T00:28:08;12.90;67.40
70244;DHT22;57634;51.136;17.024;2023-06-14T00:31:09;12.90;67.50
70244;DHT22;57634;51.136;17.024;2023-06-14T00:34:10;12.80;67.50
70244;DHT22;57634;51.136;17.024;2023-06-14T00:37:12;12.90;67.60
70244;DHT22;57634;51.136;17.024;2023-06-14T00:40:13;12.90;67.50
70244;DHT22;57634;51.136;17.024;2023-06-14T00:43:14;12.90;67.60
70244;DHT22;57634;51.136;17.024;2023-06-14T00:46:41;12.80;67.60
70244;DHT22;57634;51.136;17.024;2023-06-14T00:49:45;12.80;67.90
70244;DHT22;57634;51.136;17.024;2023-06-14T00:52:47;12.70;68.20
70244;DHT22;57634;51.136;17.024;2023-06-14T00:55:49;12.60;68.40
70244;DHT22;57634;51.136;17.024;2023-06-14T00:58:50;12.50;68.70
70244;DHT22;57634;51.136;17.024;2023-06-14T01:01:52;12.50;69.00
70244;DHT22;57634;51.136;17.024;2023-06-14T01:04:53;12.30;69.10
70244;DHT22;57634;51.136;17.024;2023-06-14T01:11:21;12.30;69.60
70244;DHT22;57634;51.136;17.024;2023-06-14T01:14:50;12.20;69.90
70244;DHT22;57634;51.136;17.024;2023-06-14T01:17:53;12.10;70.30
70244;DHT22;57634;51.136;17.024;2023-06-14T01:20:58;12.10;70.50
70244;DHT22;57634;51.136;17.024;2023-06-14T01:23:59;12.10;70.80
70244;DHT22;57634;51.136;17.024;2023-06-14T01:27:00;12.00;70.90
70244;DHT22;57634;51.136;17.024;2023-06-14T01:30:04;12.00;71.10
70244;DHT22;57634;51.136;17.024;2023-06-14T01:33:06;12.00;71.20
70244;DHT22;57634;51.136;17.024;2023-06-14T01:36:08;12.00;71.30
70244;DHT22;57634;51.136;17.024;2023-06-14T01:39:14;12.00;71.40
70244;DHT22;57634;51.136;17.024;2023-06-14T01:42:19;12.00;71.40
70244;DHT22;57634;51.136;17.024;2023-06-14T01:45:21;12.00;71.60
70244;DHT22;57634;51.136;17.024;2023-06-14T01:48:49;12.00;71.60
70244;DHT22;57634;51.136;17.024;2023-06-14T01:51:50;12.00;71.80
70244;DHT22;57634;51.136;17.024;2023-06-14T01:54:51;12.00;72.00
70244;DHT22;57634;51.136;17.024;2023-06-14T01:57:53;12.10;72.10
70244;DHT22;57634;51.136;17.024;2023-06-14T02:00:55;12.10;72.10
70244;DHT22;57634;51.136;17.024;2023-06-14T02:03:58;12.10;72.40
70244;DHT22;57634;51.136;17.024;2023-06-14T02:07:00;12.00;72.70
70244;DHT22;57634;51.136;17.024;2023-06-14T02:10:02;12.00;72.80
70244;DHT22;57634;51.136;17.024;2023-06-14T02:13:03;12.00;73.00
70244;DHT22;57634;51.136;17.024;2023-06-14T02:16:05;12.00;73.00
70244;DHT22;57634;51.136;17.024;2023-06-14T02:19:07;12.00;73.10
70244;DHT22;57634;51.136;17.024;2023-06-14T02:22:08;12.00;73.10
70244;DHT22;57634;51.136;17.024;2023-06-14T02:25:10;12.10;73.10
70244;DHT22;57634;51.136;17.024;2023-06-14T02:28:11;12.20;73.10
70244;DHT22;57634;51.136;17.024;2023-06-14T02:31:38;12.30;73.00
70244;DHT22;57634;51.136;17.024;2023-06-14T02:34:39;12.40;72.90
70244;DHT22;57634;51.136;17.024;2023-06-14T02:37:43;12.40;72.80
70244;DHT22;57634;51.136;17.024;2023-06-14T02:40:44;12.50;72.60
70244;DHT22;57634;51.136;17.024;2023-06-14T02:43:46;12.60;72.40
70244;DHT22;57634;51.136;17.024;2023-06-14T02:46:47;12.60;72.40
70244;DHT22;57634;51.136;17.024;2023-06-14T02:49:48;12.60;72.40
70244;DHT22;57634;51.136;17.024;2023-06-14T02:52:49;12.60;72.30
70244;DHT22;57634;51.136;17.024;2023-06-14T02:55:50;12.60;72.20
70244;DHT22;57634;51.136;17.024;2023-06-14T02:58:53;12.60;72.30
70244;DHT22;57634;51.136;17.024;2023-06-14T03:01:54;12.70;72.30
70244;DHT22;57634;51.136;17.024;2023-06-14T03:04:56;12.70;72.30
70244;DHT22;57634;51.136;17.024;2023-06-14T03:08:03;12.80;72.20
70244;DHT22;57634;51.136;17.024;2023-06-14T03:11:32;12.80;72.10
70244;DHT22;57634;51.136;17.024;2023-06-14T03:14:33;12.90;72.00
70244;DHT22;57634;51.136;17.024;2023-06-14T03:17:35;13.00;71.80
70244;DHT22;57634;51.136;17.024;2023-06-14T03:20:39;13.10;71.70
70244;DHT22;57634;51.136;17.024;2023-06-14T03:23:43;13.10;71.50
70244;DHT22;57634;51.136;17.024;2023-06-14T03:26:45;13.20;71.50
70244;DHT22;57634;51.136;17.024;2023-06-14T03:29:47;13.20;71.40
70244;DHT22;57634;51.136;17.024;2023-06-14T03:32:48;13.20;71.10
70244;DHT22;57634;51.136;17.024;2023-06-14T03:35:49;13.20;71.30
70244;DHT22;57634;51.136;17.024;2023-06-14T03:38:51;13.20;71.30
70244;DHT22;57634;51.136;17.024;2023-06-14T03:41:52;13.20;71.40
70244;DHT22;57634;51.136;17.024;2023-06-14T03:44:53;13.30;71.40
70244;DHT22;57634;51.136;17.024;2023-06-14T03:47:54;13.30;71.50
70244;DHT22;57634;51.136;17.024;2023-06-14T03:51:23;13.50;71.60
70244;DHT22;57634;51.136;17.024;2023-06-14T03:54:27;13.80;71.50
70244;DHT22;57634;51.136;17.024;2023-06-14T03:57:30;14.10;71.00
70244;DHT22;57634;51.136;17.024;2023-06-14T04:00:31;14.40;70.30
70244;DHT22;57634;51.136;17.024;2023-06-14T04:03:33;14.60;69.50
70244;DHT22;57634;51.136;17.024;2023-06-14T04:06:34;14.80;69.10
70244;DHT22;57634;51.136;17.024;2023-06-14T04:09:35;14.90;68.80
70244;DHT22;57634;51.136;17.024;2023-06-14T04:12:37;15.10;68.40
70244;DHT22;57634;51.136;17.024;2023-06-14T04:15:39;15.20;67.90
70244;DHT22;57634;51.136;17.024;2023-06-14T04:18:44;15.40;67.50
70244;DHT22;57634;51.136;17.024;2023-06-14T04:21:47;15.60;67.20
70244;DHT22;57634;51.136;17.024;2023-06-14T04:24:48;15.80;66.90
70244;DHT22;57634;51.136;17.024;2023-06-14T04:28:18;16.20;67.10
70244;DHT22;57634;51.136;17.024;2023-06-14T04:31:20;17.10;66.10
70244;DHT22;57634;51.136;17.024;2023-06-14T04:34:26;17.80;63.60
70244;DHT22;57634;51.136;17.024;2023-06-14T04:37:32;18.30;61.80
70244;DHT22;57634;51.136;17.024;2023-06-14T04:40:35;18.70;60.60
70244;DHT22;57634;51.136;17.024;2023-06-14T04:43:42;18.90;59.50
70244;DHT22;57634;51.136;17.024;2023-06-14T04:46:43;18.90;58.80
70244;DHT22;57634;51.136;17.024;2023-06-14T04:49:48;19.00;58.90
70244;DHT22;57634;51.136;17.024;2023-06-14T04:52:53;19.40;58.30
70244;DHT22;57634;51.136;17.024;2023-06-14T04:56:20;19.60;57.00
70244;DHT22;57634;51.136;17.024;2023-06-14T04:59:22;19.80;56.10
70244;DHT22;57634;51.136;17.024;2023-06-14T05:02:26;20.00;55.10
70244;DHT22;57634;51.136;17.024;2023-06-14T05:05:29;20.00;54.90
70244;DHT22;57634;51.136;17.024;2023-06-14T05:08:31;20.10;54.20
70244;DHT22;57634;51.136;17.024;2023-06-14T05:11:32;19.80;54.00
70244;DHT22;57634;51.136;17.024;2023-06-14T05:14:34;19.40;54.60
70244;DHT22;57634;51.136;17.024;2023-06-14T05:17:35;18.90;55.40
70244;DHT22;57634;51.136;17.024;2023-06-14T05:20:37;18.50;56.20
70244;DHT22;57634;51.136;17.024;2023-06-14T05:23:38;18.10;57.00
70244;DHT22;57634;51.136;17.024;2023-06-14T05:26:39;17.70;58.20
70244;DHT22;57634;51.136;17.024;2023-06-14T05:29:41;17.60;61.00
70244;DHT22;57634;51.136;17.024;2023-06-14T05:32:42;18.60;61.20
70244;DHT22;57634;51.136;17.024;2023-06-14T05:36:11;19.70;58.60
70244;DHT22;57634;51.136;17.024;2023-06-14T05:39:12;20.50;55.60
70244;DHT22;57634;51.136;17.024;2023-06-14T05:42:14;20.70;54.10
70244;DHT22;57634;51.136;17.024;2023-06-14T05:45:15;20.70;53.40
70244;DHT22;57634;51.136;17.024;2023-06-14T05:48:16;20.60;53.20
70244;DHT22;57634;51.136;17.024;2023-06-14T05:51:17;20.40;53.30
70244;DHT22;57634;51.136;17.024;2023-06-14T05:54:23;20.20;53.60
70244;DHT22;57634;51.136;17.024;2023-06-14T05:57:24;20.00;54.00
70244;DHT22;57634;51.136;17.024;2023-06-14T06:00:25;19.80;54.30
70244;DHT22;57634;51.136;17.024;2023-06-14T06:03:28;19.60;54.70
70244;DHT22;57634;51.136;17.024;2023-06-14T06:06:30;19.50;55.20
70244;DHT22;57634;51.136;17.024;2023-06-14T06:09:32;19.30;55.50
70244;DHT22;57634;51.136;17.024;2023-06-14T06:12:34;19.30;55.80
70244;DHT22;57634;51.136;17.024;2023-06-14T06:16:03;19.40;55.90
70244;DHT22;57634;51.136;17.024;2023-06-14T06:19:05;19.50;56.00
70244;DHT22;57634;51.136;17.024;2023-06-14T06:22:06;19.70;55.70
70244;DHT22;57634;51.136;17.024;2023-06-14T06:25:08;19.90;55.40
70244;DHT22;57634;51.136;17.024;2023-06-14T06:28:09;20.20;55.30
70244;DHT22;57634;51.136;17.024;2023-06-14T06:31:11;20.40;55.00
70244;DHT22;57634;51.136;17.024;2023-06-14T06:34:12;20.80;54.30
70244;DHT22;57634;51.136;17.024;2023-06-14T06:37:14;21.10;53.50
70244;DHT22;57634;51.136;17.024;2023-06-14T06:40:15;21.10;52.60
70244;DHT22;57634;51.136;17.024;2023-06-14T06:43:17;21.10;52.50
70244;DHT22;57634;51.136;17.024;2023-06-14T06:46:18;21.10;52.40
70244;DHT22;57634;51.136;17.024;2023-06-14T06:49:20;21.10;52.50
70244;DHT22;57634;51.136;17.024;2023-06-14T06:52:21;21.00;52.60
70244;DHT22;57634;51.136;17.024;2023-06-14T06:55:22;21.10;52.70
70244;DHT22;57634;51.136;17.024;2023-06-14T06:58:51;21.00;52.50
70244;DHT22;57634;51.136;17.024;2023-06-14T07:01:52;20.60;52.90
70244;DHT22;57634;51.136;17.024;2023-06-14T07:04:53;20.30;53.80
70244;DHT22;57634;51.136;17.024;2023-06-14T07:07:56;19.80;54.80
70244;DHT22;57634;51.136;17.024;2023-06-14T07:10:57;19.50;56.00
70244;DHT22;57634;51.136;17.024;2023-06-14T07:13:58;19.30;57.10
70244;DHT22;57634;51.136;17.024;2023-06-14T07:17:00;19.70;57.80
70244;DHT22;57634;51.136;17.024;2023-06-14T07:20:03;20.50;56.80
70244;DHT22;57634;51.136;17.024;2023-06-14T07:23:09;21.40;55.90
70244;DHT22;57634;51.136;17.024;2023-06-14T07:26:11;23.00;53.70
70244;DHT22;57634;51.136;17.024;2023-06-14T07:29:12;24.40;50.30
70244;DHT22;57634;51.136;17.024;2023-06-14T07:32:13;26.20;48.60
70244;DHT22;57634;51.136;17.024;2023-06-14T07:35:15;28.50;44.30
70244;DHT22;57634;51.136;17.024;2023-06-14T07:38:41;30.80;40.70
70244;DHT22;57634;51.136;17.024;2023-06-14T07:41:43;33.60;34.50
70244;DHT22;57634;51.136;17.024;2023-06-14T07:44:44;34.70;31.80
70244;DHT22;57634;51.136;17.024;2023-06-14T07:47:45;35.10;29.50
70244;DHT22;57634;51.136;17.024;2023-06-14T07:50:46;34.40;29.10
70244;DHT22;57634;51.136;17.024;2023-06-14T07:53:48;33.40;29.20
70244;DHT22;57634;51.136;17.024;2023-06-14T07:56:50;31.80;29.90
70244;DHT22;57634;51.136;17.024;2023-06-14T07:59:51;30.20;31.30
70244;DHT22;57634;51.136;17.024;2023-06-14T08:02:53;28.70;33.10
70244;DHT22;57634;51.136;17.024;2023-06-14T08:06:00;27.60;35.00
70244;DHT22;57634;51.136;17.024;2023-06-14T08:09:05;27.10;36.30
70244;DHT22;57634;51.136;17.024;2023-06-14T08:12:07;26.70;37.00
70244;DHT22;57634;51.136;17.024;2023-06-14T08:15:35;26.30;37.60
70244;DHT22;57634;51.136;17.024;2023-06-14T08:18:37;25.90;38.50
70244;DHT22;57634;51.136;17.024;2023-06-14T08:21:38;25.80;39.60
70244;DHT22;57634;51.136;17.024;2023-06-14T08:24:39;26.50;40.00
70244;DHT22;57634;51.136;17.024;2023-06-14T08:27:41;27.50;37.80
70244;DHT22;57634;51.136;17.024;2023-06-14T08:30:42;27.50;36.20
70244;DHT22;57634;51.136;17.024;2023-06-14T08:33:43;26.80;36.70
70244;DHT22;57634;51.136;17.024;2023-06-14T08:36:44;26.00;37.70
70244;DHT22;57634;51.136;17.024;2023-06-14T08:39:46;25.30;38.50
70244;DHT22;57634;51.136;17.024;2023-06-14T08:42:52;24.60;39.60
70244;DHT22;57634;51.136;17.024;2023-06-14T08:46:00;23.90;40.80
70244;DHT22;57634;51.136;17.024;2023-06-14T08:51:25;23.00;43.00
70244;DHT22;57634;51.136;17.024;2023-06-14T08:54:33;22.50;44.40
70244;DHT22;57634;51.136;17.024;2023-06-14T08:57:42;22.10;45.30
70244;DHT22;57634;51.136;17.024;2023-06-14T09:00:43;22.10;46.20
70244;DHT22;57634;51.136;17.024;2023-06-14T09:03:45;22.10;46.50
70244;DHT22;57634;51.136;17.024;2023-06-14T09:06:49;22.30;46.80
70244;DHT22;57634;51.136;17.024;2023-06-14T09:10:09;22.80;46.20
70244;DHT22;57634;51.136;17.024;2023-06-14T09:13:37;23.30;45.50
70244;DHT22;57634;51.136;17.024;2023-06-14T09:16:38;23.70;44.30
70244;DHT22;57634;51.136;17.024;2023-06-14T09:19:39;23.70;43.60
70244;DHT22;57634;51.136;17.024;2023-06-14T09:22:41;23.60;43.50
70244;DHT22;57634;51.136;17.024;2023-06-14T09:25:45;23.50;43.70
70244;DHT22;57634;51.136;17.024;2023-06-14T09:28:48;23.20;43.90
70244;DHT22;57634;51.136;17.024;2023-06-14T09:31:49;22.90;44.20
70244;DHT22;57634;51.136;17.024;2023-06-14T09:34:51;22.30;44.70
70244;DHT22;57634;51.136;17.024;2023-06-14T09:37:55;21.90;45.40
70244;DHT22;57634;51.136;17.024;2023-06-14T09:40:58;21.50;46.50
70244;DHT22;57634;51.136;17.024;2023-06-14T09:44:00;21.20;47.60
70244;DHT22;57634;51.136;17.024;2023-06-14T09:47:04;20.80;48.30
70244;DHT22;57634;51.136;17.024;2023-06-14T09:50:31;20.50;49.20
70244;DHT22;57634;51.136;17.024;2023-06-14T09:53:35;20.20;50.70
70244;DHT22;57634;51.136;17.024;2023-06-14T09:56:38;20.10;52.10
70244;DHT22;57634;51.136;17.024;2023-06-14T09:59:46;20.10;52.60
70244;DHT22;57634;51.136;17.024;2023-06-14T10:02:54;20.10;52.60
70244;DHT22;57634;51.136;17.024;2023-06-14T10:06:02;20.30;52.50
70244;DHT22;57634;51.136;17.024;2023-06-14T10:09:05;20.60;52.20
70244;DHT22;57634;51.136;17.024;2023-06-14T10:12:09;21.00;52.10
70244;DHT22;57634;51.136;17.024;2023-06-14T10:19:06;22.70;50.10
70244;DHT22;57634;51.136;17.024;2023-06-14T10:22:06;23.50;47.70
70244;DHT22;57634;51.136;17.024;2023-06-14T10:25:13;23.90;46.40
70244;DHT22;57634;51.136;17.024;2023-06-14T10:28:16;23.90;44.50
70244;DHT22;57634;51.136;17.024;2023-06-14T10:31:56;23.90;44.20
70244;DHT22;57634;51.136;17.024;2023-06-14T10:35:00;24.00;43.80
70244;DHT22;57634;51.136;17.024;2023-06-14T10:38:08;24.10;43.30
70244;DHT22;57634;51.136;17.024;2023-06-14T10:41:09;24.20;42.80
70244;DHT22;57634;51.136;17.024;2023-06-14T10:47:30;24.20;42.40
70244;DHT22;57634;51.136;17.024;2023-06-14T10:50:32;24.00;42.50
70244;DHT22;57634;51.136;17.024;2023-06-14T10:54:02;24.00;42.80
70244;DHT22;57634;51.136;17.024;2023-06-14T10:57:06;24.10;42.20
70244;DHT22;57634;51.136;17.024;2023-06-14T11:00:10;24.00;42.50
70244;DHT22;57634;51.136;17.024;2023-06-14T11:06:41;24.10;42.40
70244;DHT22;57634;51.136;17.024;2023-06-14T11:13:25;24.20;42.00
70244;DHT22;57634;51.136;17.024;2023-06-14T11:16:27;24.00;41.50
70244;DHT22;57634;51.136;17.024;2023-06-14T11:19:29;23.50;41.80
70244;DHT22;57634;51.136;17.024;2023-06-14T11:22:41;23.10;42.60
70244;DHT22;57634;51.136;17.024;2023-06-14T11:25:42;22.80;43.50
70244;DHT22;57634;51.136;17.024;2023-06-14T11:28:44;22.60;43.70
70244;DHT22;57634;51.136;17.024;2023-06-14T11:31:46;22.40;44.20
70244;DHT22;57634;51.136;17.024;2023-06-14T11:34:47;22.20;44.40
70244;DHT22;57634;51.136;17.024;2023-06-14T11:37:52;22.20;44.40
70244;DHT22;57634;51.136;17.024;2023-06-14T11:40:53;22.20;44.60
70244;DHT22;57634;51.136;17.024;2023-06-14T11:44:25;22.30;44.70
70244;DHT22;57634;51.136;17.024;2023-06-14T11:47:34;22.60;44.60
70244;DHT22;57634;51.136;17.024;2023-06-14T11:50:37;22.70;44.40
70244;DHT22;57634;51.136;17.024;2023-06-14T11:53:42;22.90;43.90
70244;DHT22;57634;51.136;17.024;2023-06-14T11:56:43;22.90;43.70
70244;DHT22;57634;51.136;17.024;2023-06-14T11:59:45;22.90;43.90
70244;DHT22;57634;51.136;17.024;2023-06-14T12:02:54;23.00;43.70
70244;DHT22;57634;51.136;17.024;2023-06-14T12:06:05;23.00;43.50
70244;DHT22;57634;51.136;17.024;2023-06-14T12:09:34;23.00;43.60
70244;DHT22;57634;51.136;17.024;2023-06-14T12:12:38;23.10;43.70
70244;DHT22;57634;51.136;17.024;2023-06-14T12:15:40;22.90;43.50
70244;DHT22;57634;51.136;17.024;2023-06-14T12:18:42;22.70;43.90
70244;DHT22;57634;51.136;17.024;2023-06-14T12:21:47;22.40;44.30
70244;DHT22;57634;51.136;17.024;2023-06-14T12:24:50;22.10;45.20
70244;DHT22;57634;51.136;17.024;2023-06-14T12:27:54;21.70;46.10
70244;DHT22;57634;51.136;17.024;2023-06-14T12:30:57;21.50;47.10
70244;DHT22;57634;51.136;17.024;2023-06-14T12:33:59;21.20;47.90
70244;DHT22;57634;51.136;17.024;2023-06-14T12:37:02;21.10;48.80
70244;DHT22;57634;51.136;17.024;2023-06-14T12:40:05;21.00;49.90
70244;DHT22;57634;51.136;17.024;2023-06-14T12:43:33;20.80;50.80
70244;DHT22;57634;51.136;17.024;2023-06-14T12:46:34;20.60;52.40
70244;DHT22;57634;51.136;17.024;2023-06-14T12:49:40;20.40;53.20
70244;DHT22;57634;51.136;17.024;2023-06-14T12:52:42;20.40;53.70
70244;DHT22;57634;51.136;17.024;2023-06-14T12:55:43;20.40;53.80
70244;DHT22;57634;51.136;17.024;2023-06-14T12:58:44;20.50;53.80
70244;DHT22;57634;51.136;17.024;2023-06-14T13:01:46;20.60;53.40
70244;DHT22;57634;51.136;17.024;2023-06-14T13:04:51;20.70;53.10
70244;DHT22;57634;51.136;17.024;2023-06-14T13:07:53;20.80;52.70
70244;DHT22;57634;51.136;17.024;2023-06-14T13:10:54;21.00;52.30
70244;DHT22;57634;51.136;17.024;2023-06-14T13:13:56;21.10;52.00
70244;DHT22;57634;51.136;17.024;2023-06-14T13:16:58;21.10;51.80
70244;DHT22;57634;51.136;17.024;2023-06-14T13:20:27;21.10;51.80
70244;DHT22;57634;51.136;17.024;2023-06-14T13:23:28;21.20;52.00
70244;DHT22;57634;51.136;17.024;2023-06-14T13:26:29;21.30;51.60
70244;DHT22;57634;51.136;17.024;2023-06-14T13:29:30;21.20;51.40
70244;DHT22;57634;51.136;17.024;2023-06-14T13:32:33;21.10;51.40
70244;DHT22;57634;51.136;17.024;2023-06-14T13:35:35;21.10;51.80
70244;DHT22;57634;51.136;17.024;2023-06-14T13:38:36;21.10;51.80
70244;DHT22;57634;51.136;17.024;2023-06-14T13:41:37;21.20;51.50
70244;DHT22;57634;51.136;17.024;2023-06-14T13:44:38;21.40;51.40
70244;DHT22;57634;51.136;17.024;2023-06-14T13:47:40;21.50;51.10
70244;DHT22;57634;51.136;17.024;2023-06-14T13:50:42;21.70;50.90
70244;DHT22;57634;51.136;17.024;2023-06-14T13:53:46;21.80;50.40
70244;DHT22;57634;51.136;17.024;2023-06-14T13:56:48;21.90;50.10
70244;DHT22;57634;51.136;17.024;2023-06-14T14:00:18;22.10;49.80
70244;DHT22;57634;51.136;17.024;2023-06-14T14:03:21;22.30;49.30
70244;DHT22;57634;51.136;17.024;2023-06-14T14:06:22;22.30;48.80
70244;DHT22;57634;51.136;17.024;2023-06-14T14:09:24;22.30;48.90
70244;DHT22;57634;51.136;17.024;2023-06-14T14:12:25;22.20;49.10
70244;DHT22;57634;51.136;17.024;2023-06-14T14:15:27;22.00;49.40
70244;DHT22;57634;51.136;17.024;2023-06-14T14:18:30;21.80;49.90
70244;DHT22;57634;51.136;17.024;2023-06-14T14:21:32;21.60;49.80
70244;DHT22;57634;51.136;17.024;2023-06-14T14:24:34;21.40;50.00
70244;DHT22;57634;51.136;17.024;2023-06-14T14:27:35;21.30;50.00
70244;DHT22;57634;51.136;17.024;2023-06-14T14:30:37;21.20;50.00
70244;DHT22;57634;51.136;17.024;2023-06-14T14:33:40;21.00;50.20
70244;DHT22;57634;51.136;17.024;2023-06-14T14:37:11;20.80;50.70
70244;DHT22;57634;51.136;17.024;2023-06-14T14:40:15;20.60;51.20
70244;DHT22;57634;51.136;17.024;2023-06-14T14:43:17;20.30;51.80
70244;DHT22;57634;51.136;17.024;2023-06-14T14:46:18;20.20;52.50
70244;DHT22;57634;51.136;17.024;2023-06-14T14:49:19;20.00;52.70
70244;DHT22;57634;51.136;17.024;2023-06-14T14:52:21;19.90;53.20
70244;DHT22;57634;51.136;17.024;2023-06-14T14:55:22;19.80;53.70
70244;DHT22;57634;51.136;17.024;2023-06-14T14:58:24;19.70;54.10
70244;DHT22;57634;51.136;17.024;2023-06-14T15:01:26;19.70;54.40
70244;DHT22;57634;51.136;17.024;2023-06-14T15:04:28;19.70;54.60
70244;DHT22;57634;51.136;17.024;2023-06-14T15:07:31;19.70;54.50
70244;DHT22;57634;51.136;17.024;2023-06-14T15:10:34;19.70;54.70
70244;DHT22;57634;51.136;17.024;2023-06-14T15:13:36;19.70;54.80
70244;DHT22;57634;51.136;17.024;2023-06-14T15:17:03;19.70;55.20
70244;DHT22;57634;51.136;17.024;2023-06-14T15:20:06;19.60;55.80
70244;DHT22;57634;51.136;17.024;2023-06-14T15:23:07;19.50;56.20
70244;DHT22;57634;51.136;17.024;2023-06-14T15:26:08;19.50;56.70
70244;DHT22;57634;51.136;17.024;2023-06-14T15:29:09;19.50;57.20
70244;DHT22;57634;51.136;17.024;2023-06-14T15:32:10;19.50;57.20
70244;DHT22;57634;51.136;17.024;2023-06-14T15:35:12;19.50;57.30
70244;DHT22;57634;51.136;17.024;2023-06-14T15:38:13;19.50;57.50
70244;DHT22;57634;51.136;17.024;2023-06-14T15:41:14;19.40;57.70
70244;DHT22;57634;51.136;17.024;2023-06-14T15:44:15;19.30;57.90
70244;DHT22;57634;51.136;17.024;2023-06-14T15:47:16;19.30;58.10
70244;DHT22;57634;51.136;17.024;2023-06-14T15:50:17;19.30;58.20
70244;DHT22;57634;51.136;17.024;2023-06-14T15:53:19;19.40;58.30
70244;DHT22;57634;51.136;17.024;2023-06-14T15:56:21;19.40;58.40
70244;DHT22;57634;51.136;17.024;2023-06-14T15:59:51;19.50;58.40
70244;DHT22;57634;51.136;17.024;2023-06-14T16:02:53;19.60;58.60
70244;DHT22;57634;51.136;17.024;2023-06-14T16:05:56;19.70;58.60
70244;DHT22;57634;51.136;17.024;2023-06-14T16:08:58;19.80;58.20
70244;DHT22;57634;51.136;17.024;2023-06-14T16:12:00;19.80;58.10
70244;DHT22;57634;51.136;17.024;2023-06-14T16:15:03;19.90;57.70
70244;DHT22;57634;51.136;17.024;2023-06-14T16:18:05;19.80;57.50
70244;DHT22;57634;51.136;17.024;2023-06-14T16:21:06;19.80;57.50
70244;DHT22;57634;51.136;17.024;2023-06-14T16:24:11;19.70;57.40
70244;DHT22;57634;51.136;17.024;2023-06-14T16:27:12;19.70;57.60
70244;DHT22;57634;51.136;17.024;2023-06-14T16:30:15;19.60;57.60
70244;DHT22;57634;51.136;17.024;2023-06-14T16:33:17;19.60;57.20
70244;DHT22;57634;51.136;17.024;2023-06-14T16:36:45;19.60;56.90
70244;DHT22;57634;51.136;17.024;2023-06-14T16:39:46;19.50;56.80
70244;DHT22;57634;51.136;17.024;2023-06-14T16:42:47;19.50;56.80
70244;DHT22;57634;51.136;17.024;2023-06-14T16:45:49;19.50;56.80
70244;DHT22;57634;51.136;17.024;2023-06-14T16:48:50;19.50;56.90
70244;DHT22;57634;51.136;17.024;2023-06-14T16:51:51;19.40;57.00
70244;DHT22;57634;51.136;17.024;2023-06-14T16:54:52;19.40;57.20
70244;DHT22;57634;51.136;17.024;2023-06-14T16:57:54;19.30;57.30
70244;DHT22;57634;51.136;17.024;2023-06-14T17:00:56;19.30;57.60
70244;DHT22;57634;51.136;17.024;2023-06-14T17:03:57;19.30;57.90
70244;DHT22;57634;51.136;17.024;2023-06-14T17:06:59;19.20;58.10
70244;DHT22;57634;51.136;17.024;2023-06-14T17:10:00;19.10;58.30
70244;DHT22;57634;51.136;17.024;2023-06-14T17:13:02;19.00;58.70
70244;DHT22;57634;51.136;17.024;2023-06-14T17:16:04;19.00;59.00
70244;DHT22;57634;51.136;17.024;2023-06-14T17:19:33;18.90;59.40
70244;DHT22;57634;51.136;17.024;2023-06-14T17:22:34;18.90;60.20
70244;DHT22;57634;51.136;17.024;2023-06-14T17:25:36;18.80;60.50
70244;DHT22;57634;51.136;17.024;2023-06-14T17:28:38;18.80;60.60
70244;DHT22;57634;51.136;17.024;2023-06-14T17:31:39;18.80;60.50
70244;DHT22;57634;51.136;17.024;2023-06-14T17:34:41;18.70;59.90
70244;DHT22;57634;51.136;17.024;2023-06-14T17:37:42;18.60;59.70
70244;DHT22;57634;51.136;17.024;2023-06-14T17:40:43;18.50;59.60
70244;DHT22;57634;51.136;17.024;2023-06-14T17:43:44;18.50;59.50
70244;DHT22;57634;51.136;17.024;2023-06-14T17:46:45;18.50;59.40
70244;DHT22;57634;51.136;17.024;2023-06-14T17:49:47;18.50;59.10
70244;DHT22;57634;51.136;17.024;2023-06-14T17:52:54;18.50;59.00
70244;DHT22;57634;51.136;17.024;2023-06-14T17:55:56;18.50;58.80
70244;DHT22;57634;51.136;17.024;2023-06-14T17:59:24;18.60;58.80
70244;DHT22;57634;51.136;17.024;2023-06-14T18:02:25;18.60;58.70
70244;DHT22;57634;51.136;17.024;2023-06-14T18:05:27;18.70;58.70
70244;DHT22;57634;51.136;17.024;2023-06-14T18:08:30;18.70;58.50
70244;DHT22;57634;51.136;17.024;2023-06-14T18:11:31;18.70;58.50
70244;DHT22;57634;51.136;17.024;2023-06-14T18:14:33;18.70;58.60
70244;DHT22;57634;51.136;17.024;2023-06-14T18:17:35;18.70;58.70
70244;DHT22;57634;51.136;17.024;2023-06-14T18:20:36;18.70;58.80
70244;DHT22;57634;51.136;17.024;2023-06-14T18:23:37;18.70;58.80
70244;DHT22;57634;51.136;17.024;2023-06-14T18:26:39;18.80;58.80
70244;DHT22;57634;51.136;17.024;2023-06-14T18:29:40;18.80;58.70
70244;DHT22;57634;51.136;17.024;2023-06-14T18:32:41;18.80;58.70
70244;DHT22;57634;51.136;17.024;2023-06-14T18:35:47;18.80;58.70
70244;DHT22;57634;51.136;17.024;2023-06-14T18:39:18;18.80;58.70
70244;DHT22;57634;51.136;17.024;2023-06-14T18:42:20;18.80;58.80
70244;DHT22;57634;51.136;17.024;2023-06-14T18:45:23;18.80;58.90
70244;DHT22;57634;51.136;17.024;2023-06-14T18:48:24;18.80;58.90
70244;DHT22;57634;51.136;17.024;2023-06-14T18:51:26;18.90;58.90
70244;DHT22;57634;51.136;17.024;2023-06-14T18:54:27;18.90;58.90
70244;DHT22;57634;51.136;17.024;2023-06-14T18:57:28;18.90;59.00
70244;DHT22;57634;51.136;17.024;2023-06-14T19:00:34;18.80;59.00
70244;DHT22;57634;51.136;17.024;2023-06-14T19:03:35;18.80;59.10
70244;DHT22;57634;51.136;17.024;2023-06-14T19:06:37;18.70;59.30
70244;DHT22;57634;51.136;17.024;2023-06-14T19:09:39;18.60;59.50
70244;DHT22;57634;51.136;17.024;2023-06-14T19:12:40;18.60;59.80
70244;DHT22;57634;51.136;17.024;2023-06-14T19:16:10;18.50;60.00
70244;DHT22;57634;51.136;17.024;2023-06-14T19:19:12;18.40;60.40
70244;DHT22;57634;51.136;17.024;2023-06-14T19:22:14;18.30;60.70
70244;DHT22;57634;51.136;17.024;2023-06-14T19:25:15;18.30;61.00